createdAt,value
2023-04-26T00:00:03.755Z,6.10
2023-04-26T00:01:03.403Z,6.10
2023-04-26T00:02:04.023Z,6.20
2023-04-26T00:03:08.911Z,6.10
2023-04-26T00:04:03.895Z,6.10
2023-04-26T00:05:03.714Z,6.10
2023-04-26T00:06:06.357Z,6.10
2023-04-26T00:07:03.856Z,6.10
2023-04-26T00:08:03.487Z,6.10
2023-04-26T00:09:06.619Z,6.10
2023-04-26T00:10:09.356Z,6.00
2023-04-26T00:11:06.407Z,6.00
2023-04-26T00:12:06.419Z,6.10
2023-04-26T00:13:04.011Z,6.00
2023-04-26T00:14:03.531Z,6.00
2023-04-26T00:15:04.176Z,6.00
2023-04-26T00:16:03.856Z,6.00
2023-04-26T00:17:03.592Z,6.00
2023-04-26T00:18:03.216Z,6.00
2023-04-26T00:19:03.798Z,6.00
2023-04-26T00:20:05.899Z,6.00
2023-04-26T00:21:03.268Z,6.00
2023-04-26T00:22:03.867Z,6.00
2023-04-26T00:23:06.110Z,6.00
2023-04-26T00:24:04.029Z,5.90
2023-04-26T00:25:06.092Z,6.00
2023-04-26T00:26:03.525Z,5.90
2023-04-26T00:27:04.108Z,5.90
2023-04-26T00:28:03.650Z,5.90
2023-04-26T00:29:03.212Z,5.90
2023-04-26T00:30:05.920Z,5.90
2023-04-26T00:31:05.987Z,5.90
2023-04-26T00:32:03.429Z,5.80
2023-04-26T00:33:03.973Z,5.90
2023-04-26T00:34:06.268Z,5.90
2023-04-26T00:35:03.772Z,5.90
2023-04-26T00:36:06.096Z,5.80
2023-04-26T00:37:03.488Z,5.80
2023-04-26T00:38:06.654Z,5.80
2023-04-26T00:39:05.884Z,5.80
2023-04-26T00:40:06.091Z,5.80
2023-04-26T00:41:08.694Z,5.70
2023-04-26T00:42:04.124Z,5.70
2023-04-26T00:43:06.230Z,5.80
2023-04-26T00:44:03.653Z,5.70
2023-04-26T00:45:03.207Z,5.80
2023-04-26T00:46:03.829Z,5.80
2023-04-26T00:47:08.558Z,5.70
2023-04-26T00:48:06.577Z,5.70
2023-04-26T00:49:06.546Z,5.70
2023-04-26T00:50:03.992Z,5.70
2023-04-26T00:51:03.557Z,5.70
2023-04-26T00:52:06.615Z,5.70
2023-04-26T00:53:06.736Z,5.70
2023-04-26T00:55:03.695Z,5.70
2023-04-26T00:56:05.912Z,5.70
2023-04-26T00:57:03.523Z,5.70
2023-04-26T00:58:06.699Z,5.70
2023-04-26T00:59:06.684Z,5.70
2023-04-26T01:00:06.704Z,5.70
2023-04-26T01:02:03.848Z,5.60
2023-04-26T01:03:06.243Z,5.60
2023-04-26T01:04:09.241Z,5.60
2023-04-26T01:06:08.968Z,5.70
2023-04-26T01:07:03.443Z,5.60
2023-04-26T01:08:03.998Z,5.60
2023-04-26T01:09:06.128Z,5.60
2023-04-26T01:10:03.560Z,5.60
2023-04-26T01:11:04.116Z,5.60
2023-04-26T01:12:08.764Z,5.60
2023-04-26T01:13:03.165Z,5.60
2023-04-26T01:14:03.697Z,5.60
2023-04-26T01:15:03.279Z,5.60
2023-04-26T01:16:03.818Z,5.60
2023-04-26T01:17:05.953Z,5.60
2023-04-26T01:18:03.607Z,5.60
2023-04-26T01:19:03.145Z,5.60
2023-04-26T01:20:03.660Z,5.60
2023-04-26T01:21:03.527Z,5.60
2023-04-26T01:22:05.826Z,5.60
2023-04-26T01:23:03.240Z,5.60
2023-04-26T01:24:06.355Z,5.60
2023-04-26T01:25:09.237Z,5.50
2023-04-26T01:26:03.833Z,5.60
2023-04-26T01:27:05.946Z,5.50
2023-04-26T01:28:03.313Z,5.50
2023-04-26T01:29:03.982Z,5.50
2023-04-26T01:30:03.879Z,5.50
2023-04-26T01:31:03.478Z,5.50
2023-04-26T01:32:04.072Z,5.50
2023-04-26T01:33:08.951Z,5.50
2023-04-26T01:35:04.128Z,5.50
2023-04-26T01:36:05.805Z,5.50
2023-04-26T01:37:03.178Z,5.40
2023-04-26T01:38:03.726Z,5.50
2023-04-26T01:39:03.310Z,5.50
2023-04-26T01:40:09.001Z,5.50
2023-04-26T01:41:03.463Z,5.40
2023-04-26T01:42:04.035Z,5.40
2023-04-26T01:43:03.537Z,5.40
2023-04-26T01:44:04.173Z,5.40
2023-04-26T01:45:06.335Z,5.40
2023-04-26T01:46:03.737Z,5.40
2023-04-26T01:47:03.355Z,5.40
2023-04-26T01:48:03.897Z,5.40
2023-04-26T01:49:03.537Z,5.40
2023-04-26T01:50:04.043Z,5.40
2023-04-26T01:51:08.733Z,5.40
2023-04-26T01:52:03.176Z,5.40
2023-04-26T01:53:03.744Z,5.40
2023-04-26T01:54:03.344Z,5.30
2023-04-26T01:55:06.436Z,5.40
2023-04-26T01:56:03.850Z,5.40
2023-04-26T01:57:03.396Z,5.40
2023-04-26T01:58:06.480Z,5.40
2023-04-26T01:59:03.869Z,5.40
2023-04-26T02:00:03.466Z,5.40
2023-04-26T02:01:06.593Z,5.30
2023-04-26T02:02:06.664Z,5.30
2023-04-26T02:03:05.924Z,5.40
2023-04-26T02:04:03.489Z,5.40
2023-04-26T02:05:06.689Z,5.20
2023-04-26T02:07:08.688Z,5.30
2023-04-26T02:08:04.146Z,5.30
2023-04-26T02:09:03.740Z,5.30
2023-04-26T02:10:03.336Z,5.30
2023-04-26T02:11:03.857Z,5.30
2023-04-26T02:12:03.461Z,5.30
2023-04-26T02:13:06.596Z,5.30
2023-04-26T02:14:04.120Z,5.30
2023-04-26T02:15:03.747Z,5.30
2023-04-26T02:16:03.321Z,5.30
2023-04-26T02:17:04.120Z,5.30
2023-04-26T02:19:03.540Z,5.30
2023-04-26T02:20:04.121Z,5.20
2023-04-26T02:22:03.174Z,5.20
2023-04-26T02:23:03.999Z,5.20
2023-04-26T02:24:03.762Z,5.20
2023-04-26T02:25:05.959Z,5.10
2023-04-26T02:26:06.059Z,5.10
2023-04-26T02:27:06.019Z,5.10
2023-04-26T02:28:03.407Z,5.10
2023-04-26T02:29:04.142Z,5.10
2023-04-26T02:30:03.880Z,5.10
2023-04-26T02:31:03.411Z,5.10
2023-04-26T02:32:03.998Z,5.10
2023-04-26T02:33:03.597Z,5.10
2023-04-26T02:34:05.666Z,5.00
2023-04-26T02:35:04.080Z,5.10
2023-04-26T02:36:03.646Z,5.00
2023-04-26T02:37:03.294Z,5.00
2023-04-26T02:38:04.079Z,5.00
2023-04-26T02:39:06.175Z,5.00
2023-04-26T02:40:06.194Z,5.00
2023-04-26T02:41:03.647Z,5.00
2023-04-26T02:42:05.817Z,4.90
2023-04-26T02:43:03.280Z,4.90
2023-04-26T02:44:03.899Z,4.90
2023-04-26T02:45:06.159Z,4.90
2023-04-26T02:46:06.173Z,4.80
2023-04-26T02:47:06.463Z,4.80
2023-04-26T02:49:03.382Z,4.80
2023-04-26T02:50:06.141Z,4.80
2023-04-26T02:51:06.182Z,4.80
2023-04-26T02:52:03.674Z,4.80
2023-04-26T02:53:03.214Z,4.70
2023-04-26T02:54:05.773Z,4.70
2023-04-26T02:55:03.633Z,4.70
2023-04-26T02:56:03.433Z,4.70
2023-04-26T02:57:09.122Z,4.60
2023-04-26T02:58:03.615Z,4.60
2023-04-26T02:59:05.686Z,4.60
2023-04-26T03:00:04.122Z,4.60
2023-04-26T03:01:03.637Z,4.60
2023-04-26T03:02:05.877Z,4.50
2023-04-26T03:03:03.610Z,4.50
2023-04-26T03:04:05.819Z,4.50
2023-04-26T03:05:03.480Z,4.40
2023-04-26T03:06:04.096Z,4.50
2023-04-26T03:08:05.744Z,4.40
2023-04-26T03:09:03.208Z,4.40
2023-04-26T03:10:06.374Z,4.40
2023-04-26T03:11:06.571Z,4.40
2023-04-26T03:12:04.055Z,4.30
2023-04-26T03:13:03.626Z,4.40
2023-04-26T03:14:03.216Z,4.30
2023-04-26T03:15:08.895Z,4.30
2023-04-26T03:16:03.358Z,4.20
2023-04-26T03:17:06.520Z,4.30
2023-04-26T03:18:03.952Z,4.20
2023-04-26T03:19:03.500Z,4.20
2023-04-26T03:20:03.979Z,4.20
2023-04-26T03:21:03.571Z,4.10
2023-04-26T03:22:05.789Z,4.20
2023-04-26T03:23:08.402Z,4.20
2023-04-26T03:24:05.704Z,4.10
2023-04-26T03:25:03.637Z,4.00
2023-04-26T03:26:08.420Z,4.10
2023-04-26T03:27:03.884Z,4.10
2023-04-26T03:28:03.387Z,4.10
2023-04-26T03:29:06.462Z,4.00
2023-04-26T03:30:03.835Z,4.00
2023-04-26T03:31:03.382Z,4.10
2023-04-26T03:32:06.508Z,4.00
2023-04-26T03:33:04.071Z,4.00
2023-04-26T03:34:03.751Z,4.00
2023-04-26T03:35:03.282Z,4.00
2023-04-26T03:36:08.983Z,4.00
2023-04-26T03:37:03.452Z,3.90
2023-04-26T03:38:09.044Z,3.90
2023-04-26T03:40:05.714Z,3.90
2023-04-26T03:41:04.188Z,3.90
2023-04-26T03:42:03.760Z,3.90
2023-04-26T03:43:03.477Z,3.80
2023-04-26T03:44:08.744Z,3.80
2023-04-26T03:45:03.352Z,3.80
2023-04-26T03:46:05.936Z,3.70
2023-04-26T03:47:03.615Z,3.70
2023-04-26T03:48:03.186Z,3.60
2023-04-26T03:49:09.375Z,3.60
2023-04-26T03:50:03.771Z,3.60
2023-04-26T03:51:05.878Z,3.50
2023-04-26T03:52:03.295Z,3.60
2023-04-26T03:53:03.870Z,3.50
2023-04-26T03:54:03.531Z,3.50
2023-04-26T03:55:03.221Z,3.50
2023-04-26T03:56:03.922Z,3.50
2023-04-26T03:57:06.336Z,3.50
2023-04-26T03:58:06.416Z,3.50
2023-04-26T03:59:03.923Z,3.40
2023-04-26T04:00:03.454Z,3.40
2023-04-26T04:01:03.148Z,3.40
2023-04-26T04:02:03.697Z,3.40
2023-04-26T04:03:08.676Z,3.40
2023-04-26T04:04:03.967Z,3.40
2023-04-26T04:05:03.761Z,3.40
2023-04-26T04:06:06.507Z,3.40
2023-04-26T04:07:03.985Z,3.30
2023-04-26T04:08:03.558Z,3.40
2023-04-26T04:09:04.143Z,3.40
2023-04-26T04:10:06.343Z,3.40
2023-04-26T04:11:06.306Z,3.40
2023-04-26T04:12:03.755Z,3.40
2023-04-26T04:13:03.286Z,3.40
2023-04-26T04:14:03.885Z,3.40
2023-04-26T04:15:03.409Z,3.40
2023-04-26T04:16:03.994Z,3.40
2023-04-26T04:18:05.821Z,3.30
2023-04-26T04:19:03.380Z,3.30
2023-04-26T04:20:08.990Z,3.40
2023-04-26T04:21:08.530Z,3.30
2023-04-26T04:22:03.961Z,3.30
2023-04-26T04:23:13.642Z,3.40
2023-04-26T04:24:04.116Z,3.40
2023-04-26T04:25:09.150Z,3.40
2023-04-26T04:27:03.183Z,3.40
2023-04-26T04:28:06.254Z,3.40
2023-04-26T04:29:03.741Z,3.40
2023-04-26T04:30:03.394Z,3.40
2023-04-26T04:31:04.078Z,3.40
2023-04-26T04:33:03.429Z,3.40
2023-04-26T04:34:04.081Z,3.40
2023-04-26T04:35:03.716Z,3.40
2023-04-26T04:36:05.755Z,3.50
2023-04-26T04:37:05.881Z,3.50
2023-04-26T04:38:05.854Z,3.50
2023-04-26T04:39:03.271Z,3.50
2023-04-26T04:40:03.973Z,3.60
2023-04-26T04:42:03.352Z,3.60
2023-04-26T04:43:03.961Z,3.60
2023-04-26T04:45:03.175Z,3.70
2023-04-26T04:46:03.783Z,3.80
2023-04-26T04:47:03.221Z,3.90
2023-04-26T04:48:05.960Z,4.20
2023-04-26T04:49:08.698Z,4.30
2023-04-26T04:50:03.180Z,4.40
2023-04-26T04:51:03.643Z,4.50
2023-04-26T04:52:05.864Z,4.80
2023-04-26T04:53:03.294Z,4.80
2023-04-26T04:54:04.010Z,5.00
2023-04-26T04:55:06.069Z,5.40
2023-04-26T04:56:03.507Z,5.40
2023-04-26T04:57:03.218Z,5.50
2023-04-26T04:58:03.869Z,5.80
2023-04-26T04:59:05.918Z,6.10
2023-04-26T05:00:03.313Z,6.10
2023-04-26T05:01:03.825Z,6.20
2023-04-26T05:02:06.052Z,6.60
2023-04-26T05:03:03.633Z,6.60
2023-04-26T05:04:03.420Z,6.70
2023-04-26T05:05:08.485Z,7.10
2023-04-26T05:06:06.766Z,7.30
2023-04-26T05:08:06.537Z,7.60
2023-04-26T05:09:04.051Z,7.50
2023-04-26T05:10:04.199Z,7.70
2023-04-26T05:11:08.954Z,8.00
2023-04-26T05:12:03.561Z,8.10
2023-04-26T05:13:08.739Z,8.30
2023-04-26T05:14:03.299Z,8.30
2023-04-26T05:15:03.916Z,8.50
2023-04-26T05:16:06.168Z,8.70
2023-04-26T05:17:03.673Z,8.70
2023-04-26T05:18:11.022Z,9.00
2023-04-26T05:19:08.723Z,9.20
2023-04-26T05:20:03.766Z,9.10
2023-04-26T05:21:03.394Z,9.30
2023-04-26T05:22:04.143Z,9.40
2023-04-26T05:23:06.277Z,9.60
2023-04-26T05:24:06.276Z,9.70
2023-04-26T05:25:06.331Z,9.80
2023-04-26T05:26:14.020Z,9.80
2023-04-26T05:27:03.582Z,9.80
2023-04-26T05:28:03.146Z,9.90
2023-04-26T05:29:06.217Z,10.20
2023-04-26T05:30:03.649Z,10.10
2023-04-26T05:31:05.861Z,10.40
2023-04-26T05:32:08.657Z,10.40
2023-04-26T05:33:05.924Z,10.60
2023-04-26T05:34:05.943Z,10.70
2023-04-26T05:35:03.327Z,10.70
2023-04-26T05:36:03.846Z,10.80
2023-04-26T05:37:03.529Z,10.70
2023-04-26T05:38:03.159Z,10.70
2023-04-26T05:39:06.351Z,10.60
2023-04-26T05:40:03.831Z,10.60
2023-04-26T05:41:06.305Z,10.50
2023-04-26T05:42:06.357Z,10.50
2023-04-26T05:43:06.348Z,10.50
2023-04-26T05:44:03.876Z,10.40
2023-04-26T05:45:06.116Z,10.30
2023-04-26T05:46:03.759Z,10.30
2023-04-26T05:47:03.389Z,10.10
2023-04-26T05:48:04.118Z,10.10
2023-04-26T05:50:06.001Z,10.00
2023-04-26T05:51:03.403Z,10.00
2023-04-26T05:52:06.502Z,10.10
2023-04-26T05:53:03.993Z,10.10
2023-04-26T05:54:06.118Z,10.30
2023-04-26T05:55:11.125Z,10.50
2023-04-26T05:56:08.603Z,10.60
2023-04-26T05:57:04.133Z,10.60
2023-04-26T05:58:06.401Z,10.90
2023-04-26T05:59:04.012Z,10.90
2023-04-26T06:00:03.594Z,11.00
2023-04-26T06:01:03.238Z,11.10
2023-04-26T06:02:06.365Z,11.30
2023-04-26T06:03:03.981Z,11.20
2023-04-26T06:04:04.371Z,11.40
2023-04-26T06:05:03.973Z,11.50
2023-04-26T06:06:06.558Z,11.70
2023-04-26T06:07:04.056Z,11.70
2023-04-26T06:08:06.202Z,11.80
2023-04-26T06:09:03.611Z,11.80
2023-04-26T06:10:05.914Z,12.00
2023-04-26T06:11:05.902Z,12.00
2023-04-26T06:12:08.411Z,12.10
2023-04-26T06:13:03.842Z,12.00
2023-04-26T06:14:14.371Z,12.20
2023-04-26T06:15:03.573Z,12.20
2023-04-26T06:16:06.054Z,12.10
2023-04-26T06:17:03.517Z,12.10
2023-04-26T06:18:03.285Z,12.00
2023-04-26T06:19:03.964Z,12.00
2023-04-26T06:20:03.554Z,11.90
2023-04-26T06:21:04.088Z,11.90
2023-04-26T06:22:03.663Z,11.80
2023-04-26T06:23:05.914Z,11.60
2023-04-26T06:24:05.967Z,11.50
2023-04-26T06:25:03.458Z,11.50
2023-04-26T06:26:04.135Z,11.30
2023-04-26T06:28:03.482Z,11.00
2023-04-26T06:29:03.473Z,10.90
2023-04-26T06:30:04.064Z,10.70
2023-04-26T06:31:03.857Z,10.60
2023-04-26T06:32:03.564Z,10.50
2023-04-26T06:33:06.444Z,10.30
2023-04-26T06:34:07.455Z,10.30
2023-04-26T06:35:06.450Z,10.30
2023-04-26T06:36:04.055Z,10.20
2023-04-26T06:37:06.277Z,10.30
2023-04-26T06:38:03.742Z,10.30
2023-04-26T06:39:03.546Z,10.30
2023-04-26T06:40:04.096Z,10.40
2023-04-26T06:41:11.380Z,10.50
2023-04-26T06:42:03.942Z,10.50
2023-04-26T06:43:06.117Z,10.60
2023-04-26T06:44:03.655Z,10.50
2023-04-26T06:45:05.903Z,10.50
2023-04-26T06:46:03.573Z,10.40
2023-04-26T06:47:03.470Z,10.40
2023-04-26T06:48:04.279Z,10.30
2023-04-26T06:49:04.117Z,10.20
2023-04-26T06:50:06.349Z,10.00
2023-04-26T06:51:06.545Z,9.90
2023-04-26T06:52:04.177Z,9.90
2023-04-26T06:53:03.796Z,9.80
2023-04-26T06:54:03.419Z,9.70
2023-04-26T06:55:03.977Z,9.60
2023-04-26T06:56:06.197Z,9.40
2023-04-26T06:57:03.669Z,9.40
2023-04-26T06:58:03.219Z,9.40
2023-04-26T06:59:03.714Z,9.40
2023-04-26T07:00:08.446Z,9.60
2023-04-26T07:01:09.014Z,9.70
2023-04-26T07:02:03.518Z,9.70
2023-04-26T07:03:04.240Z,9.80
2023-04-26T07:05:03.463Z,9.90
2023-04-26T07:06:05.761Z,10.00
2023-04-26T07:07:03.252Z,9.90
2023-04-26T07:08:11.402Z,9.80
2023-04-26T07:09:11.469Z,9.80
2023-04-26T07:10:06.491Z,9.70
2023-04-26T07:11:04.019Z,9.70
2023-04-26T07:13:03.277Z,9.60
2023-04-26T07:14:03.936Z,9.40
2023-04-26T07:15:06.158Z,9.30
2023-04-26T07:16:03.799Z,9.20
2023-04-26T07:17:11.021Z,9.10
2023-04-26T07:18:03.519Z,9.10
2023-04-26T07:19:04.117Z,9.10
2023-04-26T07:21:03.563Z,9.20
2023-04-26T07:22:06.105Z,9.40
2023-04-26T07:23:03.797Z,9.50
2023-04-26T07:24:03.364Z,9.60
2023-04-26T07:25:03.969Z,9.70
2023-04-26T07:26:03.656Z,9.80
2023-04-26T07:27:03.337Z,9.80
2023-04-26T07:28:03.860Z,9.90
2023-04-26T07:29:03.437Z,9.90
2023-04-26T07:30:04.070Z,9.90
2023-04-26T07:31:03.698Z,9.80
2023-04-26T07:32:04.118Z,9.70
2023-04-26T07:33:03.775Z,9.70
2023-04-26T07:34:03.871Z,9.50
2023-04-26T07:35:03.623Z,9.40
2023-04-26T07:36:05.925Z,9.30
2023-04-26T07:37:03.337Z,9.30
2023-04-26T07:38:06.511Z,9.40
2023-04-26T07:39:03.963Z,9.40
2023-04-26T07:41:03.619Z,9.50
2023-04-26T07:42:03.202Z,9.60
2023-04-26T07:43:03.812Z,9.70
2023-04-26T07:45:04.106Z,9.90
2023-04-26T07:47:03.563Z,9.90
2023-04-26T07:48:06.682Z,9.90
2023-04-26T07:50:03.947Z,9.80
2023-04-26T07:52:10.834Z,9.60
2023-04-26T07:53:03.373Z,9.60
2023-04-26T07:54:06.486Z,9.60
2023-04-26T07:55:03.980Z,9.60
2023-04-26T07:56:06.160Z,9.80
2023-04-26T07:57:03.733Z,9.80
2023-04-26T07:58:05.861Z,9.90
2023-04-26T07:59:03.347Z,9.90
2023-04-26T08:00:03.950Z,10.00
2023-04-26T08:01:03.624Z,10.10
2023-04-26T08:02:05.790Z,10.30
2023-04-26T08:03:03.502Z,10.20
2023-04-26T08:04:03.426Z,10.30
2023-04-26T08:05:03.955Z,10.20
2023-04-26T08:06:06.666Z,10.10
2023-04-26T08:07:03.747Z,10.10
2023-04-26T08:08:03.277Z,10.00
2023-04-26T08:09:03.901Z,9.90
2023-04-26T08:10:06.064Z,9.70
2023-04-26T08:11:03.627Z,9.70
2023-04-26T08:12:05.790Z,9.60
2023-04-26T08:13:05.871Z,9.50
2023-04-26T08:14:03.423Z,9.40
2023-04-26T08:15:04.149Z,9.40
2023-04-26T08:16:06.282Z,9.20
2023-04-26T08:17:06.351Z,9.10
2023-04-26T08:18:04.013Z,9.10
2023-04-26T08:19:06.697Z,9.10
2023-04-26T08:20:04.296Z,9.00
2023-04-26T08:21:06.555Z,9.10
2023-04-26T08:22:04.079Z,9.00
2023-04-26T08:23:03.750Z,9.10
2023-04-26T08:24:03.325Z,9.20
2023-04-26T08:25:03.881Z,9.30
2023-04-26T08:26:05.983Z,9.50
2023-04-26T08:27:03.681Z,9.50
2023-04-26T08:28:03.890Z,9.60
2023-04-26T08:29:03.689Z,9.70
2023-04-26T08:30:03.370Z,9.80
2023-04-26T08:31:03.979Z,9.90
2023-04-26T08:33:03.328Z,10.20
2023-04-26T08:34:09.001Z,10.30
2023-04-26T08:35:03.472Z,10.30
2023-04-26T08:36:09.183Z,10.40
2023-04-26T08:37:06.232Z,10.40
2023-04-26T08:38:03.827Z,10.30
2023-04-26T08:39:03.461Z,10.30
2023-04-26T08:40:06.640Z,10.30
2023-04-26T08:41:09.109Z,10.30
2023-04-26T08:43:04.021Z,10.30
2023-04-26T08:44:11.225Z,10.50
2023-04-26T08:45:03.659Z,10.50
2023-04-26T08:46:05.758Z,10.60
2023-04-26T08:47:06.058Z,10.70
2023-04-26T08:48:04.522Z,10.70
2023-04-26T08:49:03.490Z,10.80
2023-04-26T08:50:04.097Z,10.90
2023-04-26T08:51:03.643Z,10.90
2023-04-26T08:52:05.863Z,10.80
2023-04-26T08:53:03.379Z,10.80
2023-04-26T08:54:04.899Z,10.70
2023-04-26T08:55:03.588Z,10.60
2023-04-26T08:56:03.134Z,10.60
2023-04-26T08:57:06.246Z,10.40
2023-04-26T08:58:03.777Z,10.40
2023-04-26T08:59:03.282Z,10.30
2023-04-26T09:00:03.834Z,10.20
2023-04-26T09:01:05.986Z,10.10
2023-04-26T09:02:03.611Z,10.10
2023-04-26T09:03:08.445Z,9.90
2023-04-26T09:04:04.336Z,9.90
2023-04-26T09:05:04.258Z,9.90
2023-04-26T09:06:04.524Z,9.90
2023-04-26T09:07:05.899Z,9.90
2023-04-26T09:08:05.884Z,9.90
2023-04-26T09:09:08.324Z,10.00
2023-04-26T09:10:03.688Z,10.00
2023-04-26T09:11:03.301Z,10.00
2023-04-26T09:12:03.920Z,10.00
2023-04-26T09:13:03.621Z,10.10
2023-04-26T09:14:03.801Z,10.00
2023-04-26T09:16:04.917Z,10.20
2023-04-26T09:17:04.002Z,10.20
2023-04-26T09:18:06.175Z,10.30
2023-04-26T09:19:06.334Z,10.40
2023-04-26T09:20:04.948Z,10.40
2023-04-26T09:21:03.766Z,10.50
2023-04-26T09:22:03.441Z,10.50
2023-04-26T09:23:06.671Z,10.70
2023-04-26T09:24:04.192Z,10.70
2023-04-26T09:25:03.822Z,10.80
2023-04-26T09:26:06.005Z,11.10
2023-04-26T09:27:03.417Z,11.10
2023-04-26T09:28:04.001Z,11.20
2023-04-26T09:31:09.218Z,11.10
2023-04-26T09:33:05.945Z,11.00
2023-04-26T09:34:03.614Z,11.00
2023-04-26T09:35:05.703Z,10.90
2023-04-26T09:36:03.213Z,10.80
2023-04-26T09:37:08.945Z,10.60
2023-04-26T09:38:08.961Z,10.60
2023-04-26T09:39:03.506Z,10.60
2023-04-26T09:40:04.004Z,10.50
2023-04-26T09:41:08.641Z,10.40
2023-04-26T09:42:05.935Z,10.30
2023-04-26T09:43:03.452Z,10.30
2023-04-26T09:44:04.145Z,10.20
2023-04-26T09:45:06.315Z,10.00
2023-04-26T09:46:03.821Z,10.00
2023-04-26T09:47:03.453Z,10.00
2023-04-26T09:49:03.911Z,9.90
2023-04-26T09:50:06.160Z,9.80
2023-04-26T09:51:03.858Z,9.80
2023-04-26T09:52:03.456Z,9.80
2023-04-26T09:53:04.095Z,9.90
2023-04-26T09:54:06.262Z,10.00
2023-04-26T09:55:03.700Z,10.00
2023-04-26T09:56:03.269Z,10.10
2023-04-26T09:57:03.849Z,10.20
2023-04-26T09:58:08.646Z,10.40
2023-04-26T09:59:03.252Z,10.40
2023-04-26T10:00:03.973Z,10.50
2023-04-26T10:01:03.741Z,10.60
2023-04-26T10:02:03.491Z,10.70
2023-04-26T10:04:03.971Z,10.80
2023-04-26T10:05:03.819Z,10.80
2023-04-26T10:06:03.798Z,10.80
2023-04-26T10:07:03.329Z,10.80
2023-04-26T10:08:04.038Z,10.80
2023-04-26T10:10:04.121Z,10.90
2023-04-26T10:11:03.799Z,10.90
2023-04-26T10:12:06.182Z,11.00
2023-04-26T10:13:03.682Z,11.00
2023-04-26T10:14:03.310Z,11.00
2023-04-26T10:15:06.540Z,11.00
2023-04-26T10:16:04.113Z,10.90
2023-04-26T10:17:03.898Z,10.90
2023-04-26T10:18:06.352Z,10.90
2023-04-26T10:19:04.061Z,10.90
2023-04-26T10:20:03.687Z,10.90
2023-04-26T10:22:09.138Z,10.80
2023-04-26T10:23:03.613Z,10.80
2023-04-26T10:24:03.214Z,10.80
2023-04-26T10:25:06.399Z,10.90
2023-04-26T10:26:06.430Z,11.00
2023-04-26T10:27:06.436Z,11.00
2023-04-26T10:28:03.855Z,11.00
2023-04-26T10:29:03.681Z,11.00
2023-04-26T10:30:03.903Z,11.00
2023-04-26T10:31:06.034Z,10.90
2023-04-26T10:32:06.083Z,10.90
2023-04-26T10:33:03.781Z,10.90
2023-04-26T10:34:03.456Z,10.80
2023-04-26T10:35:04.064Z,10.70
2023-04-26T10:37:05.801Z,10.60
2023-04-26T10:38:05.724Z,10.60
2023-04-26T10:39:10.806Z,10.50
2023-04-26T10:40:10.974Z,10.50
2023-04-26T10:41:03.591Z,10.50
2023-04-26T10:42:03.292Z,10.60
2023-04-26T10:43:03.952Z,10.60
2023-04-26T10:44:06.043Z,10.80
2023-04-26T10:45:03.474Z,10.80
2023-04-26T10:46:04.121Z,10.90
2023-04-26T10:47:08.966Z,11.00
2023-04-26T10:48:03.845Z,11.00
2023-04-26T10:49:06.000Z,11.10
2023-04-26T10:50:05.284Z,11.00
2023-04-26T10:51:06.067Z,11.00
2023-04-26T10:52:03.495Z,11.00
2023-04-26T10:53:04.228Z,11.00
2023-04-26T10:54:06.420Z,11.00
2023-04-26T10:55:06.430Z,11.00
2023-04-26T10:56:03.990Z,11.00
2023-04-26T10:57:03.688Z,10.90
2023-04-26T10:58:03.273Z,10.90
2023-04-26T10:59:06.332Z,10.80
2023-04-26T11:01:04.121Z,10.70
2023-04-26T11:02:06.490Z,10.60
2023-04-26T11:03:06.708Z,10.60
2023-04-26T11:04:03.545Z,10.50
2023-04-26T11:05:03.400Z,10.50
2023-04-26T11:07:03.864Z,10.30
2023-04-26T11:08:03.437Z,10.40
2023-04-26T11:09:04.081Z,10.40
2023-04-26T11:10:06.295Z,10.30
2023-04-26T11:11:03.804Z,10.30
2023-04-26T11:12:05.939Z,10.30
2023-04-26T11:13:10.983Z,10.30
2023-04-26T11:14:03.438Z,10.30
2023-04-26T11:15:06.622Z,10.40
2023-04-26T11:16:06.769Z,10.40
2023-04-26T11:18:03.624Z,10.40
2023-04-26T11:19:05.924Z,10.50
2023-04-26T11:20:03.447Z,10.40
2023-04-26T11:21:04.159Z,10.50
2023-04-26T11:22:06.308Z,10.60
2023-04-26T11:23:06.458Z,10.70
2023-04-26T11:24:03.956Z,10.60
2023-04-26T11:25:03.540Z,10.70
2023-04-26T11:26:04.180Z,10.80
2023-04-26T11:27:06.414Z,11.00
2023-04-26T11:28:03.926Z,11.00
2023-04-26T11:29:06.030Z,11.10
2023-04-26T11:30:06.042Z,11.20
2023-04-26T11:31:03.550Z,11.20
2023-04-26T11:32:03.187Z,11.30
2023-04-26T11:33:03.865Z,11.30
2023-04-26T11:35:03.188Z,11.40
2023-04-26T11:36:03.778Z,11.40
2023-04-26T11:37:08.472Z,11.40
2023-04-26T11:38:03.858Z,11.40
2023-04-26T11:39:03.524Z,11.40
2023-04-26T11:40:06.625Z,11.30
2023-04-26T11:41:06.626Z,11.30
2023-04-26T11:42:04.201Z,11.30
2023-04-26T11:43:06.419Z,11.20
2023-04-26T11:44:04.058Z,11.20
2023-04-26T11:45:03.700Z,11.10
2023-04-26T11:46:03.482Z,11.10
2023-04-26T11:47:03.473Z,11.00
2023-04-26T11:48:05.926Z,10.90
2023-04-26T11:49:03.591Z,10.90
2023-04-26T11:50:04.164Z,10.80
2023-04-26T11:51:03.728Z,10.80
2023-04-26T11:52:03.328Z,10.70
2023-04-26T11:53:03.851Z,10.70
2023-04-26T11:54:03.520Z,10.60
2023-04-26T11:55:03.168Z,10.60
2023-04-26T11:56:08.879Z,10.50
2023-04-26T11:57:03.376Z,10.50
2023-04-26T11:58:06.631Z,10.40
2023-04-26T11:59:13.368Z,10.50
2023-04-26T12:00:06.459Z,10.50
2023-04-26T12:01:06.400Z,10.50
2023-04-26T12:02:03.987Z,10.50
2023-04-26T12:03:04.056Z,10.60
2023-04-26T12:04:04.078Z,10.60
2023-04-26T12:05:04.177Z,10.60
2023-04-26T12:06:04.101Z,10.70
2023-04-26T12:07:03.719Z,10.80
2023-04-26T12:08:05.846Z,10.90
2023-04-26T12:09:08.398Z,10.90
2023-04-26T12:10:06.578Z,11.00
2023-04-26T12:11:09.165Z,11.00
2023-04-26T12:12:06.145Z,11.10
2023-04-26T12:13:03.814Z,11.10
2023-04-26T12:14:03.491Z,11.10
2023-04-26T12:15:06.638Z,11.00
2023-04-26T12:16:07.259Z,11.00
2023-04-26T12:17:04.492Z,11.00
2023-04-26T12:18:06.692Z,11.00
2023-04-26T12:19:05.781Z,11.00
2023-04-26T12:20:03.281Z,11.00
2023-04-26T12:21:06.691Z,11.00
2023-04-26T12:23:03.731Z,11.10
2023-04-26T12:25:06.489Z,11.30
2023-04-26T12:26:06.508Z,11.30
2023-04-26T12:27:03.992Z,11.40
2023-04-26T12:28:03.582Z,11.40
2023-04-26T12:29:05.790Z,11.40
2023-04-26T12:30:05.775Z,11.50
2023-04-26T12:31:03.291Z,11.50
2023-04-26T12:32:04.091Z,11.50
2023-04-26T12:33:15.303Z,11.50
2023-04-26T12:34:04.080Z,11.60
2023-04-26T12:35:03.730Z,11.60
2023-04-26T12:36:05.836Z,11.70
2023-04-26T12:37:05.837Z,11.70
2023-04-26T12:38:05.925Z,11.70
2023-04-26T12:39:03.483Z,11.70
2023-04-26T12:40:04.118Z,11.70
2023-04-26T12:41:03.789Z,11.70
2023-04-26T12:42:03.267Z,11.70
2023-04-26T12:43:03.772Z,11.70
2023-04-26T12:44:03.449Z,11.60
2023-04-26T12:45:06.635Z,11.50
2023-04-26T12:47:03.498Z,11.50
2023-04-26T12:48:06.649Z,11.40
2023-04-26T12:50:03.950Z,11.40
2023-04-26T12:51:03.817Z,11.40
2023-04-26T12:52:08.412Z,11.30
2023-04-26T12:53:03.799Z,11.40
2023-04-26T12:54:03.457Z,11.40
2023-04-26T12:55:06.615Z,11.40
2023-04-26T12:56:08.275Z,11.40
2023-04-26T12:57:06.349Z,11.40
2023-04-26T12:58:03.861Z,11.40
2023-04-26T13:00:03.907Z,11.40
2023-04-26T13:02:03.173Z,11.50
2023-04-26T13:03:06.443Z,11.40
2023-04-26T13:04:06.214Z,11.50
2023-04-26T13:05:03.491Z,11.50
2023-04-26T13:06:04.238Z,11.40
2023-04-26T13:08:03.462Z,11.50
2023-04-26T13:09:09.083Z,11.50
2023-04-26T13:10:03.918Z,11.50
2023-04-26T13:11:03.553Z,11.60
2023-04-26T13:12:06.708Z,11.60
2023-04-26T13:13:05.767Z,11.70
2023-04-26T13:14:03.339Z,11.60
2023-04-26T13:15:04.053Z,11.70
2023-04-26T13:17:03.311Z,11.50
2023-04-26T13:18:03.928Z,11.40
2023-04-26T13:20:03.234Z,11.10
2023-04-26T13:21:06.530Z,11.00
2023-04-26T13:22:03.985Z,11.00
2023-04-26T13:23:06.296Z,10.80
2023-04-26T13:24:06.195Z,10.80
2023-04-26T13:25:06.130Z,10.80
2023-04-26T13:26:06.172Z,10.80
2023-04-26T13:27:06.216Z,10.80
2023-04-26T13:28:03.734Z,10.80
2023-04-26T13:29:03.355Z,10.80
2023-04-26T13:30:04.138Z,10.90
2023-04-26T13:31:03.907Z,10.80
2023-04-26T13:32:03.779Z,11.00
2023-04-26T13:33:05.994Z,11.00
2023-04-26T13:34:03.738Z,11.00
2023-04-26T13:35:03.334Z,11.00
2023-04-26T13:36:03.892Z,11.00
2023-04-26T13:37:05.997Z,10.90
2023-04-26T13:38:03.441Z,10.90
2023-04-26T13:39:03.989Z,10.90
2023-04-26T13:40:03.596Z,11.00
2023-04-26T13:41:03.210Z,11.00
2023-04-26T13:42:08.907Z,11.00
2023-04-26T13:43:03.472Z,11.00
2023-04-26T13:44:04.101Z,11.00
2023-04-26T13:46:03.230Z,11.10
2023-04-26T13:47:03.950Z,11.10
2023-04-26T13:48:06.095Z,11.30
2023-04-26T13:49:03.814Z,11.20
2023-04-26T13:50:03.316Z,11.20
2023-04-26T13:51:05.538Z,11.20
2023-04-26T13:53:06.453Z,11.20
2023-04-26T13:54:03.976Z,11.20
2023-04-26T13:55:03.696Z,11.10
2023-04-26T13:56:03.340Z,11.20
2023-04-26T13:57:03.962Z,11.10